Airfield :
LOGIN :

Register | Disclaimer

   EN    FR    IT 

 










Legend :    VFR   Marginal VFR   IFR   Intensive IFR   Very Intensive IFR
Visi :
Ceiling :
>= 8 km
>= 3000ft
5 to 8 km
1000 to 3000 ft
1500m to 5 km
500 to 1000 ft
800 to 1500m
200 to 500 ft
< 800m
< 200 ft
Symbols :   Thunderstorms  Fog  Heavy snow  Heavy precipitations  Wind > 20 kt
SIGMETs :     Misc.  Thunderstorms  Icing  Turbulence  Mountain Waves  Volcanic Ashes






- Airport Elevation : 53 ft
- IATA code : HAM


EDDH - Hamburg

CURRENT METAR :
  • 261550Z AUTO 05011KT 9999 VCTS FEW026 FEW///CB 20/15 Q1015 RESHRA TEMPO TSRA

EXPIRED METARs :
  • 261520Z AUTO 01004KT 340V050 9999 SHRA VCTS FEW025 FEW///CB 19/16 Q1015 TEMPO TSRA
  • 261450Z AUTO 27004KT 200V310 9999 -SHRA FEW027 FEW///CB 20/15 Q1015 RESHRA TEMPO TSRA
  • 261420Z AUTO 24009KT 9999 SHRA VCTS FEW///CB 20/15 Q1015 TEMPO 4000 TSRA
  • 261350Z AUTO 20008KT 140V240 9999 -SHRA VCTS SCT048 FEW///CB 22/14 Q1016 RESHRA TEMPO 4000 TSRA
  • 261320Z AUTO 16004KT 110V260 CAVOK 23/13 Q1015 TEMPO TSRA
  • 261250Z AUTO 15005KT 080V220 9999 VCSH FEW///TCU 24/14 Q1016 TEMPO TSRA
  • 261220Z AUTO 12007KT 080V150 9999 -SHRA VCTS FEW043 FEW///CB 23/16 Q1016 RETSRA TEMPO 4000 TSRA
  • 261150Z AUTO 18006KT 140V230 9999 TSRA FEW039 FEW///CB 22/14 Q1017 BECMG NSW
  • 261120Z AUTO 11004KT 030V170 9999 VCSH SCT035 FEW///CB 22/14 Q1017 TEMPO 4000 TSRA

TAF AMD TAF EDDH
Valid from the 26 at 14:00 until the 27 at 18:00 UTC


261443Z 2614/2718 12007KT 9999 SCT030
TEMPO 2614/2621 SHRA SCT025CB
PROB40
TEMPO 2614/2619 24010KT 4000 TSRAGR BKN020CB
PROB30
TEMPO 2623/2703 SHRA BKN013CB
PROB30
TEMPO 2703/2706 BKN011
BECMG 2703/2706 22005KT
BECMG 2711/2713 28006KT
PROB30
TEMPO 2711/2715 SHRA BKN020TCU
BECMG 2715/2717 34005KT



MET'MAP, your aeronautical weather chart ! - Copyright ORBIFLY December 2007 - Disclaimer

ORBIFLY MET'MAP TEAM :

Programming & Development : Alexandra Zaïnal
Original concept : Baudouin d'Aumeries
Technical & hardware support : Manuel Goepfert
Assistance : Marc-Olivier Méhu




SOURCES & CREDITS :

   NOAA